Time;durP1;ratioP1;P1;durP2;ratioP2;P2;SDS_P1;SDS_P2;PMS_P1;PMS_P2;Temp;Humidity;BMP_temperature;BMP_pressure;BME280_temperature;BME280_humidity;BME280_pressure;Samples;Min_cycle;Max_cycle;Signal;HPM_P1;HPM_P2
2023/01/18 00:02:53;;;;;;;38.30;16.35;;;0.90;99.90;;;;;;20999276;28;20116;-77
2023/01/18 00:12:54;;;;;;;34.67;14.80;;;1.00;99.90;;;;;;20979766;28;20104;-77
2023/01/18 00:22:55;;;;;;;34.90;15.30;;;1.00;99.90;;;;;;20997372;28;20459;-77
2023/01/18 00:32:57;;;;;;;32.05;13.90;;;1.10;99.90;;;;;;20996686;28;20070;-77
2023/01/18 00:53:17;;;;;;;29.75;13.93;;;0.90;99.90;;;;;;20998636;28;20107;-77
2023/01/18 01:03:19;;;;;;;30.23;13.98;;;0.90;99.90;;;;;;21008287;28;20063;-77
2023/01/18 01:34:00;;;;;;;29.05;12.10;;;1.00;99.90;;;;;;20992094;28;20044;-77
2023/01/18 01:44:28;;;;;;;30.30;12.98;;;1.00;99.90;;;;;;20974338;28;20491;-77
2023/01/18 01:54:43;;;;;;;35.97;14.98;;;1.00;99.90;;;;;;20976137;28;20418;-76
2023/01/18 02:04:45;;;;;;;30.85;13.77;;;1.00;99.90;;;;;;20972753;28;20094;-76
2023/01/18 02:14:46;;;;;;;29.88;13.10;;;1.00;99.90;;;;;;20992014;28;20028;-77
2023/01/18 02:24:56;;;;;;;32.55;12.68;;;1.00;99.90;;;;;;20989735;28;20407;-76
2023/01/18 02:35:04;;;;;;;23.90;9.80;;;1.00;99.90;;;;;;20989291;28;20036;-76
2023/01/18 02:55:56;;;;;;;19.33;7.72;;;1.10;99.90;;;;;;21001336;28;20044;-78
2023/01/18 03:06:01;;;;;;;10.43;5.18;;;1.20;99.90;;;;;;20951395;28;20032;-78
2023/01/18 03:16:18;;;;;;;4.10;2.15;;;1.20;99.90;;;;;;20985472;28;20045;-77
2023/01/18 03:26:20;;;;;;;1.33;0.82;;;1.20;99.90;;;;;;21005641;28;20035;-77
2023/01/18 03:36:26;;;;;;;1.00;0.52;;;1.20;99.90;;;;;;21004349;28;20504;-77
2023/01/18 03:46:30;;;;;;;1.65;0.90;;;1.10;99.90;;;;;;21003479;28;20043;-77
2023/01/18 03:56:49;;;;;;;1.45;0.68;;;1.10;99.90;;;;;;21005146;28;20527;-77
2023/01/18 04:06:49;;;;;;;2.33;1.42;;;1.00;99.90;;;;;;21007159;28;20047;-77
2023/01/18 04:16:50;;;;;;;6.10;2.35;;;0.90;99.90;;;;;;21000739;28;20025;-77
2023/01/18 04:26:51;;;;;;;4.78;2.60;;;0.80;99.90;;;;;;21009716;28;20045;-77
2023/01/18 04:36:52;;;;;;;4.43;2.38;;;0.70;99.90;;;;;;21003804;28;20115;-77
2023/01/18 04:46:53;;;;;;;4.18;2.60;;;0.60;99.90;;;;;;21001622;28;20029;-78
2023/01/18 04:56:54;;;;;;;5.07;2.47;;;0.50;99.90;;;;;;21006654;28;20501;-77
2023/01/18 05:06:54;;;;;;;3.30;2.17;;;0.50;99.90;;;;;;21057439;28;20032;-78
2023/01/18 05:16:55;;;;;;;5.32;2.72;;;0.50;99.90;;;;;;21079685;28;20070;-78
2023/01/18 05:26:56;;;;;;;7.28;3.25;;;0.50;99.90;;;;;;21094051;28;20120;-79
2023/01/18 05:36:57;;;;;;;9.15;4.18;;;0.50;99.90;;;;;;21021222;28;20040;-79
2023/01/18 05:46:58;;;;;;;10.55;5.55;;;0.50;99.90;;;;;;21027116;28;20067;-77
2023/01/18 05:56:59;;;;;;;10.95;5.63;;;0.50;99.90;;;;;;20994668;28;20032;-77
2023/01/18 06:07:00;;;;;;;21.42;8.80;;;0.50;99.90;;;;;;20986633;28;20089;-79
2023/01/18 06:17:00;;;;;;;21.27;9.07;;;0.50;99.90;;;;;;21018584;28;20039;-79
2023/01/18 06:27:02;;;;;;;19.33;8.48;;;0.40;99.90;;;;;;21026406;28;20039;-78
2023/01/18 06:37:03;;;;;;;21.45;9.90;;;0.50;99.90;;;;;;21017553;28;20037;-78
2023/01/18 06:47:04;;;;;;;15.45;7.68;;;0.40;99.90;;;;;;21027642;28;20042;-78
2023/01/18 06:57:05;;;;;;;15.45;7.38;;;0.50;99.90;;;;;;21006121;28;20086;-78
2023/01/18 07:07:06;;;;;;;19.95;8.57;;;0.50;99.90;;;;;;21023783;28;20521;-79
2023/01/18 07:17:07;;;;;;;21.85;9.68;;;0.50;99.90;;;;;;21018476;28;20032;-77
2023/01/18 07:27:08;;;;;;;19.90;10.15;;;0.50;99.90;;;;;;21020019;28;20120;-79
2023/01/18 07:37:09;;;;;;;22.67;8.30;;;0.50;99.90;;;;;;21093265;28;20120;-78
2023/01/18 07:47:09;;;;;;;18.48;8.57;;;0.50;99.90;;;;;;21113161;28;20722;-78
2023/01/18 07:57:10;;;;;;;21.92;9.55;;;0.50;99.90;;;;;;21101440;28;20035;-77
2023/01/18 08:07:11;;;;;;;30.17;10.30;;;0.60;99.90;;;;;;21033098;28;20081;-79
2023/01/18 08:17:12;;;;;;;33.85;10.85;;;0.60;99.90;;;;;;21014360;28;20451;-77
2023/01/18 08:27:12;;;;;;;17.20;8.25;;;0.70;99.90;;;;;;21012163;28;20036;-78
2023/01/18 08:37:13;;;;;;;20.88;8.27;;;0.80;99.90;;;;;;21005991;28;20029;-78
2023/01/18 08:47:14;;;;;;;16.45;9.38;;;0.90;99.90;;;;;;21008258;28;20077;-78
2023/01/18 08:57:15;;;;;;;16.48;8.23;;;1.10;99.90;;;;;;21003891;28;20496;-78
2023/01/18 09:07:17;;;;;;;16.92;8.48;;;1.40;99.90;;;;;;21038780;28;20099;-77
2023/01/18 09:17:20;;;;;;;13.18;7.50;;;1.80;99.90;;;;;;21043229;28;20047;-77
2023/01/18 09:27:20;;;;;;;11.88;6.90;;;2.00;99.90;;;;;;21058108;28;20032;-77
2023/01/18 09:37:21;;;;;;;19.88;7.43;;;1.70;99.90;;;;;;21007847;28;20027;-77
2023/01/18 09:47:38;;;;;;;19.08;8.57;;;1.60;99.90;;;;;;20991377;28;20035;-78
2023/01/18 09:58:15;;;;;;;17.83;8.82;;;1.30;99.90;;;;;;20993114;28;20100;-77
2023/01/18 10:08:23;;;;;;;16.00;8.48;;;1.30;99.90;;;;;;20993879;28;20521;-77
2023/01/18 10:18:24;;;;;;;17.35;8.93;;;1.20;99.90;;;;;;20993724;28;20040;-77
2023/01/18 10:28:49;;;;;;;22.00;9.88;;;1.20;99.90;;;;;;21003411;28;20092;-78
2023/01/18 10:38:53;;;;;;;20.15;10.25;;;1.20;99.90;;;;;;21092431;28;20028;-77
2023/01/18 10:48:56;;;;;;;22.02;10.30;;;1.30;99.90;;;;;;21097190;28;20075;-76
2023/01/18 10:58:59;;;;;;;19.67;10.32;;;1.30;99.90;;;;;;21102211;28;20469;-78
2023/01/18 11:09:00;;;;;;;22.52;11.00;;;1.20;99.90;;;;;;21040888;28;20511;-79
2023/01/18 11:19:18;;;;;;;18.80;10.00;;;1.40;99.90;;;;;;21032971;28;20028;-78
2023/01/18 11:29:22;;;;;;;16.70;8.90;;;1.60;99.90;;;;;;21022793;28;20055;-76
2023/01/18 11:39:25;;;;;;;15.75;7.80;;;2.10;99.90;;;;;;21023316;28;20033;-79
2023/01/18 11:49:31;;;;;;;15.13;7.13;;;2.50;99.90;;;;;;21020938;28;20043;-79
2023/01/18 11:59:36;;;;;;;11.73;6.38;;;3.10;99.90;;;;;;21025020;28;20036;-76
2023/01/18 12:09:59;;;;;;;12.60;6.38;;;2.80;99.90;;;;;;21101028;28;20028;-79
2023/01/18 12:20:23;;;;;;;12.48;6.90;;;2.30;99.90;;;;;;20934642;28;20479;-76
2023/01/18 12:30:53;;;;;;;11.60;6.55;;;2.20;99.90;;;;;;20992580;28;20086;-77
2023/01/18 12:41:06;;;;;;;14.83;6.63;;;1.90;99.90;;;;;;21018679;28;20020;-79
2023/01/18 12:51:20;;;;;;;12.40;5.82;;;2.10;99.90;;;;;;21014318;28;20032;-78
2023/01/18 13:01:25;;;;;;;9.63;5.38;;;2.20;99.90;;;;;;21013525;28;20502;-79
2023/01/18 13:11:31;;;;;;;10.60;5.22;;;2.00;99.90;;;;;;21010303;28;20682;-77
2023/01/18 13:21:41;;;;;;;10.38;5.60;;;2.50;99.90;;;;;;20968154;28;20820;-77
2023/01/18 13:31:43;;;;;;;8.77;5.43;;;2.80;99.90;;;;;;21025588;28;20070;-79
2023/01/18 13:42:02;;;;;;;10.23;5.07;;;2.50;99.90;;;;;;21091963;28;20032;-78
2023/01/18 13:52:28;;;;;;;14.40;5.95;;;2.40;99.90;;;;;;21076864;28;20051;-77
2023/01/18 14:02:42;;;;;;;7.65;4.55;;;2.30;99.90;;;;;;21052313;28;20024;-77
2023/01/18 14:12:51;;;;;;;7.75;4.75;;;2.30;99.90;;;;;;21000491;28;20036;-80
2023/01/18 14:23:01;;;;;;;9.63;4.63;;;2.10;99.90;;;;;;21006564;28;20044;-78
2023/01/18 14:33:38;;;;;;;8.67;5.53;;;1.80;99.90;;;;;;21009839;28;20089;-78
2023/01/18 14:43:45;;;;;;;10.23;6.22;;;1.80;99.90;;;;;;20918207;28;20044;-78
2023/01/18 14:53:51;;;;;;;11.00;6.28;;;1.70;99.90;;;;;;21017134;28;20064;-79
2023/01/18 15:03:56;;;;;;;8.52;5.35;;;1.50;99.90;;;;;;21017774;28;20107;-79
2023/01/18 15:13:57;;;;;;;12.07;6.50;;;1.50;99.90;;;;;;21012611;28;20052;-78
2023/01/18 15:24:04;;;;;;;11.98;6.88;;;1.40;99.90;;;;;;21026106;28;20039;-77
2023/01/18 15:34:05;;;;;;;12.38;6.10;;;1.30;99.90;;;;;;21017175;28;20101;-78
2023/01/18 15:44:22;;;;;;;15.98;6.97;;;1.10;99.90;;;;;;21014555;28;20029;-78
2023/01/18 15:54:28;;;;;;;12.68;7.13;;;1.00;99.90;;;;;;21019377;28;20415;-78
2023/01/18 16:04:29;;;;;;;12.60;7.57;;;0.90;99.90;;;;;;21029445;28;20125;-78
2023/01/18 16:14:30;;;;;;;15.77;7.97;;;0.80;99.90;;;;;;21040281;28;20114;-78
2023/01/18 16:24:44;;;;;;;18.90;8.85;;;0.80;99.90;;;;;;21085996;28;20138;-77
2023/01/18 16:34:45;;;;;;;20.38;9.38;;;0.80;99.90;;;;;;21012825;28;20037;-78
2023/01/18 16:44:47;;;;;;;20.55;9.40;;;0.70;99.90;;;;;;21014785;28;20035;-78
2023/01/18 16:54:48;;;;;;;22.35;10.45;;;0.80;99.90;;;;;;21056272;28;20029;-78
2023/01/18 17:04:49;;;;;;;22.05;11.50;;;0.70;99.90;;;;;;21002047;28;20511;-77
2023/01/18 17:14:50;;;;;;;24.55;12.50;;;0.70;99.90;;;;;;20960578;28;20024;-77
2023/01/18 17:24:53;;;;;;;23.95;10.40;;;0.60;99.90;;;;;;20994863;28;20071;-77
2023/01/18 17:34:53;;;;;;;22.02;11.25;;;0.60;99.90;;;;;;21029216;28;20039;-76
2023/01/18 17:45:02;;;;;;;26.40;11.23;;;0.60;99.90;;;;;;21001507;28;20032;-77
2023/01/18 17:55:06;;;;;;;30.02;11.70;;;0.50;99.90;;;;;;20997595;28;20083;-75
2023/01/18 18:05:08;;;;;;;27.45;12.68;;;0.50;99.90;;;;;;20994373;28;20033;-75
2023/01/18 18:15:08;;;;;;;28.83;13.43;;;0.50;99.90;;;;;;20992586;28;20381;-76
2023/01/18 18:25:09;;;;;;;23.05;11.75;;;0.40;99.90;;;;;;20988298;28;20086;-77
2023/01/18 18:35:10;;;;;;;35.03;12.70;;;0.40;99.90;;;;;;20990061;28;20394;-77
2023/01/18 18:45:11;;;;;;;28.33;13.02;;;0.40;99.90;;;;;;20990291;28;20051;-77
2023/01/18 18:55:12;;;;;;;30.10;13.90;;;0.40;99.90;;;;;;20989785;28;20028;-76
2023/01/18 19:05:14;;;;;;;37.55;15.25;;;0.40;99.90;;;;;;20988813;28;20073;-77
2023/01/18 19:15:14;;;;;;;35.42;15.35;;;0.40;99.90;;;;;;20987724;28;20033;-77
2023/01/18 19:25:16;;;;;;;39.35;16.15;;;0.30;99.90;;;;;;21000098;28;20127;-77
2023/01/18 19:35:19;;;;;;;32.00;15.30;;;0.20;99.90;;;;;;21003169;28;20395;-76
2023/01/18 19:45:20;;;;;;;35.15;15.75;;;0.20;99.90;;;;;;20980672;28;20043;-77
2023/01/18 19:55:23;;;;;;;35.38;15.75;;;0.10;99.90;;;;;;20996351;28;20104;-77
2023/01/18 20:05:24;;;;;;;34.67;14.13;;;0.10;99.90;;;;;;20999697;28;20036;-77
2023/01/18 20:15:25;;;;;;;29.25;13.60;;;0.00;99.90;;;;;;20993930;28;20031;-76
2023/01/18 20:25:26;;;;;;;31.35;13.57;;;0.00;99.90;;;;;;20993727;28;20040;-76
2023/01/18 20:35:27;;;;;;;29.27;12.43;;;-0.10;99.90;;;;;;20994962;28;20047;-74
2023/01/18 20:45:27;;;;;;;25.95;12.00;;;-0.20;99.90;;;;;;20978563;28;20036;-75
2023/01/18 20:55:28;;;;;;;27.30;11.57;;;-0.20;99.90;;;;;;20995406;28;20028;-76
2023/01/18 21:05:29;;;;;;;17.70;8.57;;;-0.30;99.90;;;;;;20995897;28;20025;-76
2023/01/18 21:15:30;;;;;;;21.70;9.73;;;-0.30;99.90;;;;;;20993791;28;20162;-76
2023/01/18 21:25:30;;;;;;;20.90;10.93;;;-0.30;99.90;;;;;;20993292;28;20090;-77
2023/01/18 21:35:31;;;;;;;30.95;12.10;;;-0.40;99.90;;;;;;20991978;28;20028;-77
2023/01/18 21:55:54;;;;;;;38.65;14.10;;;-0.30;99.90;;;;;;20992714;28;20112;-76
2023/01/18 22:05:55;;;;;;;33.75;14.82;;;-0.40;99.90;;;;;;20994132;28;20487;-75
2023/01/18 22:16:02;;;;;;;26.08;10.95;;;-0.30;99.90;;;;;;20980268;28;20048;-76
2023/01/18 22:26:03;;;;;;;20.50;9.73;;;-0.20;99.90;;;;;;20997496;28;20040;-76
2023/01/18 22:36:04;;;;;;;27.00;10.27;;;-0.20;99.90;;;;;;21005863;28;20078;-77
2023/01/18 22:46:07;;;;;;;24.90;10.98;;;-0.20;99.90;;;;;;21058726;28;20032;-77
2023/01/18 22:56:11;;;;;;;20.65;9.48;;;-0.20;99.90;;;;;;21083013;28;20549;-76
2023/01/18 23:06:13;;;;;;;23.67;11.00;;;-0.20;99.90;;;;;;21014803;28;20048;-77
2023/01/18 23:26:33;;;;;;;17.73;8.80;;;-0.30;99.90;;;;;;21004968;28;20033;-77
2023/01/18 23:36:33;;;;;;;24.17;9.95;;;-0.40;99.90;;;;;;20986666;28;20043;-77
2023/01/18 23:56:54;;;;;;;17.40;8.05;;;-0.30;99.90;;;;;;21002121;28;20451;-77
